createdAt,value
2023-04-03T00:01:26.167Z,99152.75
2023-04-03T00:03:55.999Z,99144.00
2023-04-03T00:06:24.270Z,99159.75
2023-04-03T00:08:52.292Z,99142.25
2023-04-03T00:11:19.754Z,99166.75
2023-04-03T00:13:46.800Z,99145.75
2023-04-03T00:16:13.911Z,99131.78
2023-04-03T00:18:41.412Z,99150.97
2023-04-03T00:21:10.559Z,99156.22
2023-04-03T00:23:37.870Z,99153.59
2023-04-03T00:26:04.858Z,99154.47
2023-04-03T00:28:31.896Z,99123.84
2023-04-03T00:31:00.050Z,99153.59
2023-04-03T00:33:27.090Z,99117.69
2023-04-03T00:35:54.343Z,99121.19
2023-04-03T00:38:21.487Z,99164.91
2023-04-03T00:40:50.566Z,99157.06
2023-04-03T00:43:27.609Z,99164.91
2023-04-03T00:45:59.296Z,99136.88
2023-04-03T00:48:50.140Z,99153.53
2023-04-03T00:51:25.885Z,99150.88
2023-04-03T00:54:06.060Z,99137.75
2023-04-03T00:56:33.908Z,99122.00
2023-04-03T00:59:11.826Z,99146.53
2023-04-03T01:01:39.561Z,99088.72
2023-04-03T01:04:07.461Z,99138.63
2023-04-03T01:06:38.027Z,99170.13
2023-04-03T01:09:08.068Z,99156.19
2023-04-03T01:11:35.071Z,99140.41
2023-04-03T01:14:03.143Z,99147.41
2023-04-03T01:16:33.120Z,99159.66
2023-04-03T01:19:02.539Z,99150.91
2023-04-03T01:21:42.176Z,99157.94
2023-04-03T01:24:19.023Z,99155.31
2023-04-03T01:26:47.980Z,99129.94
2023-04-03T01:29:15.463Z,99154.41
2023-04-03T01:31:54.576Z,99155.28
2023-04-03T01:34:22.262Z,99116.75
2023-04-03T01:36:51.694Z,99143.91
2023-04-03T01:39:18.709Z,99116.81
2023-04-03T01:41:46.056Z,99154.41
2023-04-03T01:44:28.938Z,99136.91
2023-04-03T01:46:56.518Z,99152.69
2023-04-03T01:49:24.948Z,99152.69
2023-04-03T01:51:52.056Z,99143.03
2023-04-03T01:54:19.054Z,99112.41
2023-04-03T01:56:46.357Z,99159.66
2023-04-03T01:59:14.345Z,99162.25
2023-04-03T02:01:41.637Z,99151.72
2023-04-03T02:04:09.100Z,99135.06
2023-04-03T02:06:36.406Z,99161.31
2023-04-03T02:09:04.001Z,99151.69
2023-04-03T02:11:31.808Z,99153.41
2023-04-03T02:13:59.204Z,99156.91
2023-04-03T02:16:26.298Z,99135.03
2023-04-03T02:18:53.318Z,99149.00
2023-04-03T02:21:20.368Z,99145.50
2023-04-03T02:23:48.719Z,99155.13
2023-04-03T02:26:17.795Z,99157.75
2023-04-03T02:28:46.905Z,99161.22
2023-04-03T02:31:14.538Z,99131.44
2023-04-03T02:33:43.563Z,99162.91
2023-04-03T02:36:13.937Z,99161.13
2023-04-03T02:38:44.116Z,99139.28
2023-04-03T02:41:13.106Z,99163.78
2023-04-03T02:43:40.989Z,99175.09
2023-04-03T02:46:08.945Z,99163.69
2023-04-03T02:48:36.396Z,99168.06
2023-04-03T02:51:03.667Z,99156.66
2023-04-03T02:53:30.739Z,99171.50
2023-04-03T02:55:59.175Z,99169.75
2023-04-03T02:58:26.390Z,99156.53
2023-04-03T03:00:58.315Z,99165.38
2023-04-03T03:03:25.692Z,99141.75
2023-04-03T03:06:04.150Z,99172.34
2023-04-03T03:08:31.466Z,99179.28
2023-04-03T03:16:44.801Z,99119.75
2023-04-03T03:19:11.967Z,99165.34
2023-04-03T03:21:39.216Z,99124.13
2023-04-03T03:24:06.652Z,99167.91
2023-04-03T03:26:34.814Z,99167.06
2023-04-03T03:29:03.484Z,99178.38
2023-04-03T03:31:30.615Z,99194.06
2023-04-03T03:33:58.325Z,99185.22
2023-04-03T03:36:25.650Z,99151.09
2023-04-03T03:38:52.858Z,99199.19
2023-04-03T03:41:19.905Z,99187.84
2023-04-03T03:43:47.918Z,99191.38
2023-04-03T03:46:16.453Z,99162.47
2023-04-03T03:48:43.418Z,99168.56
2023-04-03T03:51:10.634Z,99157.19
2023-04-03T03:53:39.519Z,99172.97
2023-04-03T03:56:09.949Z,99199.25
2023-04-03T03:58:39.715Z,99192.25
2023-04-03T04:01:08.188Z,99188.72
2023-04-03T04:03:41.485Z,99181.69
2023-04-03T04:06:10.623Z,99179.03
2023-04-03T04:08:37.980Z,99171.13
2023-04-03T04:11:08.034Z,99195.69
2023-04-03T04:13:35.398Z,99183.44
2023-04-03T04:16:02.958Z,99144.09
2023-04-03T04:18:31.209Z,99188.75
2023-04-03T04:20:58.418Z,99181.88
2023-04-03T04:23:26.187Z,99186.16
2023-04-03T04:25:53.789Z,99151.22
2023-04-03T04:28:22.132Z,99187.16
2023-04-03T04:30:52.955Z,99193.38
2023-04-03T04:33:21.759Z,99200.38
2023-04-03T04:35:50.380Z,99178.50
2023-04-03T04:38:20.419Z,99202.13
2023-04-03T04:40:49.492Z,99203.03
2023-04-03T04:43:16.630Z,99189.03
2023-04-03T04:45:45.802Z,99200.38
2023-04-03T04:48:13.128Z,99178.47
2023-04-03T04:50:40.420Z,99162.72
2023-04-03T04:53:07.950Z,99203.00
2023-04-03T04:55:35.235Z,99203.00
2023-04-03T04:58:02.610Z,99203.88
2023-04-03T05:00:30.647Z,99175.00
2023-04-03T05:02:57.670Z,99203.06
2023-04-03T05:05:24.948Z,99167.19
2023-04-03T05:07:52.204Z,99176.84
2023-04-03T05:10:19.262Z,99182.97
2023-04-03T05:12:47.415Z,99161.97
2023-04-03T05:15:15.388Z,99191.78
2023-04-03T05:17:43.125Z,99206.69
2023-04-03T05:20:13.834Z,99208.47
2023-04-03T05:22:42.578Z,99204.97
2023-04-03T05:25:10.857Z,99192.72
2023-04-03T05:27:39.426Z,99212.00
2023-04-03T05:30:07.332Z,99202.38
2023-04-03T05:32:35.982Z,99181.34
2023-04-03T05:35:15.144Z,99218.13
2023-04-03T05:37:43.318Z,99213.75
2023-04-03T05:40:11.727Z,99215.56
2023-04-03T05:42:42.841Z,99225.22
2023-04-03T05:45:10.276Z,99217.38
2023-04-03T05:47:37.425Z,99225.25
2023-04-03T05:50:07.187Z,99224.41
2023-04-03T05:52:39.271Z,99200.78
2023-04-03T05:55:06.813Z,99197.31
2023-04-03T05:57:35.653Z,99222.72
2023-04-03T06:00:07.345Z,99214.00
2023-04-03T06:02:41.296Z,99216.63
2023-04-03T06:05:13.200Z,99221.88
2023-04-03T06:07:41.858Z,99187.75
2023-04-03T06:10:13.660Z,99221.84
2023-04-03T06:12:40.772Z,99209.59
2023-04-03T06:15:11.000Z,99229.72
2023-04-03T06:17:39.266Z,99224.41
2023-04-03T06:20:07.343Z,99228.69
2023-04-03T06:22:35.676Z,99227.75
2023-04-03T06:25:02.900Z,99228.47
2023-04-03T06:27:30.186Z,99232.72
2023-04-03T06:29:57.403Z,99222.88
2023-04-03T06:32:24.507Z,99211.34
2023-04-03T06:34:51.892Z,99221.56
2023-04-03T06:37:21.692Z,99220.47
2023-04-03T06:39:48.717Z,99208.91
2023-04-03T06:42:15.950Z,99226.16
2023-04-03T06:44:53.971Z,99210.06
2023-04-03T06:47:20.885Z,99218.38
2023-04-03T06:49:47.942Z,99231.09
2023-04-03T06:52:15.018Z,99219.53
2023-04-03T06:54:42.482Z,99212.31
2023-04-03T06:57:09.723Z,99214.47
2023-04-03T06:59:37.673Z,99222.00
2023-04-03T07:02:05.485Z,99221.81
2023-04-03T07:04:32.677Z,99234.09
2023-04-03T07:06:59.827Z,99229.66
2023-04-03T07:09:27.197Z,99212.97
2023-04-03T07:11:54.166Z,99230.41
2023-04-03T07:14:22.324Z,99202.34
2023-04-03T07:16:49.540Z,99231.97
2023-04-03T07:19:16.731Z,99230.97
2023-04-03T07:21:44.501Z,99229.88
2023-04-03T07:24:15.068Z,99239.34
2023-04-03T07:26:44.033Z,99228.19
2023-04-03T07:29:10.936Z,99219.81
2023-04-03T07:31:39.793Z,99228.66
2023-04-03T07:34:06.825Z,99245.34
2023-04-03T07:36:34.482Z,99248.16
2023-04-03T07:39:01.745Z,99233.25
2023-04-03T07:41:29.699Z,99235.22
2023-04-03T07:43:57.698Z,99245.00
2023-04-03T07:46:25.076Z,99222.53
2023-04-03T07:48:52.363Z,99208.88
2023-04-03T07:51:19.854Z,99243.22
2023-04-03T07:53:51.913Z,99245.25
2023-04-03T07:56:19.013Z,99242.72
2023-04-03T07:58:46.519Z,99246.31
2023-04-03T08:01:13.608Z,99251.69
2023-04-03T08:03:41.155Z,99248.28
2023-04-03T08:06:15.270Z,99221.22
2023-04-03T08:08:43.728Z,99250.03
2023-04-03T08:11:11.761Z,99254.25
2023-04-03T08:13:39.802Z,99244.59
2023-04-03T08:16:13.516Z,99249.81
2023-04-03T08:18:41.283Z,99250.63
2023-04-03T08:21:12.459Z,99258.69
2023-04-03T08:23:42.147Z,99263.09
2023-04-03T08:26:15.756Z,99258.69
2023-04-03T08:28:43.159Z,99257.75
2023-04-03T08:31:14.798Z,99262.91
2023-04-03T08:33:44.979Z,99239.25
2023-04-03T08:36:20.019Z,99264.41
2023-04-03T08:38:47.383Z,99253.81
2023-04-03T08:41:31.921Z,99256.34
2023-04-03T08:44:24.207Z,99258.94
2023-04-03T08:47:12.501Z,99272.88
2023-04-03T08:49:52.120Z,99254.53
2023-04-03T08:52:25.331Z,99266.59
2023-04-03T08:54:55.938Z,99238.81
2023-04-03T08:57:36.836Z,99251.91
2023-04-03T09:00:16.083Z,99247.69
2023-04-03T09:02:48.446Z,99255.88
2023-04-03T09:05:22.554Z,99280.47
2023-04-03T09:07:58.830Z,99274.53
2023-04-03T09:10:32.450Z,99288.53
2023-04-03T09:13:13.051Z,99290.25
2023-04-03T09:15:42.105Z,99287.44
2023-04-03T09:18:20.788Z,99253.00
2023-04-03T09:21:14.945Z,99279.06
2023-04-03T09:23:52.283Z,99294.41
2023-04-03T09:26:48.618Z,99279.78
2023-04-03T09:29:20.497Z,99277.31
2023-04-03T09:31:50.457Z,99289.25
2023-04-03T09:34:27.573Z,99279.53
2023-04-03T09:36:58.087Z,99276.97
2023-04-03T09:39:30.846Z,99290.84
2023-04-03T09:42:08.361Z,99281.06
2023-04-03T09:44:40.025Z,99256.84
2023-04-03T09:47:26.784Z,99288.88
2023-04-03T09:50:20.390Z,99286.66
2023-04-03T09:52:50.311Z,99287.78
2023-04-03T09:55:19.603Z,99289.56
2023-04-03T09:57:47.953Z,99280.72
2023-04-03T10:00:27.492Z,99264.94
2023-04-03T10:02:58.991Z,99270.03
2023-04-03T10:05:36.420Z,99272.59
2023-04-03T10:08:15.276Z,99281.97
2023-04-03T10:10:48.100Z,99258.81
2023-04-03T10:13:22.352Z,99275.09
2023-04-03T10:16:10.042Z,99277.94
2023-04-03T10:18:48.808Z,99258.66
2023-04-03T10:21:27.781Z,99281.56
2023-04-03T10:24:13.443Z,99278.66
2023-04-03T10:26:49.452Z,99279.28
2023-04-03T10:29:27.282Z,99271.22
2023-04-03T10:32:22.890Z,99279.22
2023-04-03T10:35:05.167Z,99277.84
2023-04-03T10:37:45.893Z,99283.00
2023-04-03T10:40:12.775Z,99283.81
2023-04-03T10:42:57.266Z,99281.91
2023-04-03T10:46:05.079Z,99282.91
2023-04-03T10:48:42.514Z,99262.66
2023-04-03T10:51:28.265Z,99275.19
2023-04-03T10:54:10.848Z,99282.63
2023-04-03T10:56:55.317Z,99258.00
2023-04-03T10:59:32.471Z,99282.72
2023-04-03T11:02:05.805Z,99257.81
2023-04-03T11:04:40.745Z,99287.00
2023-04-03T11:07:17.897Z,99290.88
2023-04-03T11:09:49.987Z,99295.56
2023-04-03T11:12:24.391Z,99292.91
2023-04-03T11:14:55.188Z,99281.56
2023-04-03T11:17:23.000Z,99289.50
2023-04-03T11:19:56.105Z,99285.94
2023-04-03T11:22:25.093Z,99257.75
2023-04-03T11:25:00.527Z,99287.38
2023-04-03T11:27:33.870Z,99268.06
2023-04-03T11:30:02.062Z,99267.19
2023-04-03T11:32:33.024Z,99291.56
2023-04-03T11:35:03.646Z,99283.75
2023-04-03T11:37:41.662Z,99285.81
2023-04-03T11:40:36.739Z,99293.28
2023-04-03T11:43:23.205Z,99282.25
2023-04-03T11:46:01.973Z,99288.81
2023-04-03T11:48:35.010Z,99291.66
2023-04-03T11:51:23.515Z,99279.50
2023-04-03T11:53:50.662Z,99285.78
2023-04-03T11:56:31.407Z,99287.66
2023-04-03T11:59:14.716Z,99293.06
2023-04-03T12:01:52.701Z,99293.19
2023-04-03T12:04:22.820Z,99292.38
2023-04-03T12:06:51.337Z,99302.34
2023-04-03T12:09:25.899Z,99288.19
2023-04-03T12:11:54.019Z,99293.56
2023-04-03T12:14:26.551Z,99278.75
2023-04-03T12:16:58.518Z,99294.47
2023-04-03T12:19:42.650Z,99281.34
2023-04-03T12:22:17.050Z,99292.84
2023-04-03T12:24:49.542Z,99255.47
2023-04-03T12:27:25.704Z,99283.22
2023-04-03T12:29:55.584Z,99290.38
2023-04-03T12:32:40.708Z,99293.88
2023-04-03T12:35:26.444Z,99299.38
2023-04-03T12:38:12.086Z,99297.69
2023-04-03T12:41:04.769Z,99297.81
2023-04-03T12:43:59.324Z,99297.78
2023-04-03T12:46:35.786Z,99290.88
2023-04-03T12:49:03.295Z,99278.66
2023-04-03T12:51:41.195Z,99298.59
2023-04-03T12:54:38.374Z,99295.97
2023-04-03T12:57:29.292Z,99303.09
2023-04-03T12:59:57.501Z,99283.03
2023-04-03T13:02:34.952Z,99295.25
2023-04-03T13:05:16.393Z,99288.09
2023-04-03T13:07:44.597Z,99292.59
2023-04-03T13:10:17.479Z,99300.34
2023-04-03T13:12:49.194Z,99287.94
2023-04-03T13:15:31.203Z,99295.72
2023-04-03T13:18:00.931Z,99297.50
2023-04-03T13:20:38.617Z,99294.09
2023-04-03T13:23:12.758Z,99299.19
2023-04-03T13:25:44.001Z,99297.41
2023-04-03T13:28:15.928Z,99295.88
2023-04-03T13:31:15.115Z,99298.59
2023-04-03T13:34:13.233Z,99306.47
2023-04-03T13:36:45.048Z,99299.31
2023-04-03T13:39:13.779Z,99295.72
2023-04-03T13:41:43.881Z,99300.06
2023-04-03T13:44:22.773Z,99291.06
2023-04-03T13:46:49.908Z,99298.13
2023-04-03T13:49:29.776Z,99292.72
2023-04-03T13:52:07.380Z,99278.59
2023-04-03T13:54:39.744Z,99290.78
2023-04-03T13:57:17.779Z,99286.47
2023-04-03T13:59:48.341Z,99286.31
2023-04-03T14:02:31.529Z,99287.97
2023-04-03T14:05:02.587Z,99287.91
2023-04-03T14:07:32.257Z,99294.03
2023-04-03T14:09:59.754Z,99260.00
2023-04-03T14:12:31.846Z,99288.81
2023-04-03T14:15:02.130Z,99265.47
2023-04-03T14:17:31.118Z,99286.50
2023-04-03T14:19:59.494Z,99282.25
2023-04-03T14:22:32.241Z,99299.00
2023-04-03T14:25:00.053Z,99264.03
2023-04-03T14:27:36.951Z,99297.22
2023-04-03T14:30:08.140Z,99274.50
2023-04-03T14:32:36.099Z,99283.03
2023-04-03T14:35:03.394Z,99290.94
2023-04-03T14:37:32.424Z,99280.22
2023-04-03T14:40:01.424Z,99291.69
2023-04-03T14:42:32.135Z,99291.63
2023-04-03T14:45:00.252Z,99289.09
2023-04-03T14:47:31.742Z,99276.03
2023-04-03T14:50:04.767Z,99290.88
2023-04-03T14:52:34.912Z,99296.28
2023-04-03T14:55:04.294Z,99291.88
2023-04-03T14:57:32.037Z,99288.38
2023-04-03T14:59:59.306Z,99294.56
2023-04-03T15:02:33.942Z,99294.59
2023-04-03T15:05:05.078Z,99302.66
2023-04-03T15:07:36.392Z,99282.59
2023-04-03T15:10:16.193Z,99294.97
2023-04-03T15:12:44.612Z,99289.84
2023-04-03T15:15:11.780Z,99293.50
2023-04-03T15:17:39.209Z,99294.41
2023-04-03T15:20:20.944Z,99297.84
2023-04-03T15:22:48.027Z,99309.31
2023-04-03T15:25:15.518Z,99299.81
2023-04-03T15:27:42.785Z,99306.09
2023-04-03T15:30:16.335Z,99295.59
2023-04-03T15:32:43.435Z,99308.88
2023-04-03T15:35:10.821Z,99288.69
2023-04-03T15:37:38.046Z,99300.88
2023-04-03T15:40:06.858Z,99298.19
2023-04-03T15:42:33.959Z,99310.53
2023-04-03T15:45:01.306Z,99273.94
2023-04-03T15:47:29.397Z,99300.19
2023-04-03T15:49:57.209Z,99277.66
2023-04-03T15:52:24.174Z,99290.81
2023-04-03T15:54:51.371Z,99292.59
2023-04-03T15:57:18.696Z,99300.41
2023-04-03T15:59:45.747Z,99308.34
2023-04-03T16:02:14.184Z,99321.50
2023-04-03T16:04:42.109Z,99282.13
2023-04-03T16:07:09.202Z,99312.59
2023-04-03T16:09:37.562Z,99304.53
2023-04-03T16:12:05.110Z,99315.13
2023-04-03T16:14:32.196Z,99290.72
2023-04-03T16:17:00.939Z,99293.19
2023-04-03T16:19:28.041Z,99315.03
2023-04-03T16:21:56.558Z,99288.09
2023-04-03T16:24:24.160Z,99317.88
2023-04-03T16:26:51.281Z,99308.44
2023-04-03T16:29:18.289Z,99318.13
2023-04-03T16:31:45.735Z,99307.63
2023-04-03T16:34:13.406Z,99314.34
2023-04-03T16:36:40.675Z,99319.53
2023-04-03T16:39:10.620Z,99327.09
2023-04-03T16:41:37.654Z,99321.81
2023-04-03T16:44:04.888Z,99324.63
2023-04-03T16:46:31.994Z,99317.66
2023-04-03T16:48:58.981Z,99330.00
2023-04-03T16:51:26.428Z,99317.94
2023-04-03T16:53:53.395Z,99337.13
2023-04-03T16:56:20.613Z,99324.06
2023-04-03T16:58:47.714Z,99335.50
2023-04-03T17:01:18.082Z,99341.75
2023-04-03T17:03:45.868Z,99344.25
2023-04-03T17:06:17.483Z,99328.34
2023-04-03T17:08:46.875Z,99345.13
2023-04-03T17:11:28.786Z,99338.97
2023-04-03T17:13:55.953Z,99351.34
2023-04-03T17:16:24.438Z,99348.88
2023-04-03T17:18:51.774Z,99318.38
2023-04-03T17:21:18.820Z,99358.81
2023-04-03T17:23:49.987Z,99344.06
2023-04-03T17:26:16.937Z,99343.19
2023-04-03T17:28:45.531Z,99341.56
2023-04-03T17:31:13.730Z,99353.78
2023-04-03T17:33:40.665Z,99353.91
2023-04-03T17:36:08.230Z,99357.50
2023-04-03T17:38:35.921Z,99347.03
2023-04-03T17:41:06.378Z,99335.56
2023-04-03T17:43:33.578Z,99351.19
2023-04-03T17:46:03.925Z,99320.63
2023-04-03T17:48:33.481Z,99348.63
2023-04-03T17:51:15.086Z,99352.22
2023-04-03T17:53:42.678Z,99361.16
2023-04-03T17:56:13.134Z,99350.66
2023-04-03T17:58:39.998Z,99361.19
2023-04-03T18:01:10.093Z,99357.59
2023-04-03T18:03:37.318Z,99357.63
2023-04-03T18:06:09.425Z,99357.75
2023-04-03T18:08:48.901Z,99366.69
2023-04-03T18:11:16.978Z,99344.88
2023-04-03T18:13:45.445Z,99345.69
2023-04-03T18:16:13.645Z,99364.91
2023-04-03T18:18:41.347Z,99366.69
2023-04-03T18:21:13.899Z,99359.91
2023-04-03T18:23:47.170Z,99375.91
2023-04-03T18:26:18.076Z,99382.16
2023-04-03T18:28:53.901Z,99379.66
2023-04-03T18:31:21.851Z,99366.53
2023-04-03T18:33:48.832Z,99381.47
2023-04-03T18:38:43.706Z,99378.13
2023-04-03T18:41:10.856Z,99384.34
2023-04-03T18:43:38.168Z,99349.34
2023-04-03T18:46:07.283Z,99382.69
2023-04-03T18:48:35.274Z,99374.81
2023-04-03T18:51:02.546Z,99373.97
2023-04-03T18:53:29.494Z,99367.88
2023-04-03T18:55:56.499Z,99366.97
2023-04-03T18:58:23.543Z,99374.00
2023-04-03T19:00:50.842Z,99372.28
2023-04-03T19:03:17.966Z,99367.88
2023-04-03T19:05:46.263Z,99362.59
2023-04-03T19:08:14.238Z,99363.50
2023-04-03T19:10:41.269Z,99358.22
2023-04-03T19:13:08.615Z,99362.59
2023-04-03T19:15:35.734Z,99346.84
2023-04-03T19:18:03.283Z,99356.50
2023-04-03T19:20:30.641Z,99356.50
2023-04-03T19:22:57.973Z,99357.34
2023-04-03T19:25:25.875Z,99322.31
2023-04-03T19:27:53.040Z,99339.81
2023-04-03T19:30:20.365Z,99352.03
2023-04-03T19:32:47.699Z,99351.97
2023-04-03T19:35:15.029Z,99330.06
2023-04-03T19:37:42.814Z,99353.69
2023-04-03T19:40:10.290Z,99353.75
2023-04-03T19:42:40.457Z,99349.38
2023-04-03T19:45:08.381Z,99349.31
2023-04-03T19:47:36.351Z,99334.44
2023-04-03T19:50:04.667Z,99352.84
2023-04-03T19:52:31.701Z,99341.44
2023-04-03T19:54:59.032Z,99348.44
2023-04-03T19:57:27.909Z,99339.69
2023-04-03T19:59:55.185Z,99345.88
2023-04-03T20:02:22.379Z,99336.09
2023-04-03T20:04:49.563Z,99353.56
2023-04-03T20:07:16.884Z,99327.31
2023-04-03T20:09:44.160Z,99334.31
2023-04-03T20:12:12.521Z,99344.72
2023-04-03T20:14:41.117Z,99309.63
2023-04-03T20:17:08.892Z,99334.13
2023-04-03T20:19:36.865Z,99314.94
2023-04-03T20:22:03.860Z,99334.28
2023-04-03T20:24:31.537Z,99332.56
2023-04-03T20:26:58.680Z,99338.75
2023-04-03T20:29:25.818Z,99308.09
2023-04-03T20:31:56.214Z,99323.00
2023-04-03T20:34:23.312Z,99318.66
2023-04-03T20:36:50.406Z,99327.44
2023-04-03T20:39:19.180Z,99331.00
2023-04-03T20:41:46.303Z,99332.81
2023-04-03T20:44:13.202Z,99328.44
2023-04-03T20:46:52.364Z,99317.94
2023-04-03T20:49:21.233Z,99318.00
2023-04-03T20:51:48.671Z,99324.16
2023-04-03T20:54:15.644Z,99326.78
2023-04-03T20:56:42.775Z,99311.88
2023-04-03T20:59:11.734Z,99315.38
2023-04-03T21:01:39.767Z,99296.13
2023-04-03T21:04:14.096Z,99318.88
2023-04-03T21:07:18.561Z,99312.78
2023-04-03T21:10:23.407Z,99320.66
2023-04-03T21:13:28.320Z,99325.94
2023-04-03T21:15:55.455Z,99319.81
2023-04-03T21:18:57.874Z,99296.19
2023-04-03T21:21:26.477Z,99309.31
2023-04-03T21:23:54.882Z,99323.38
2023-04-03T21:26:23.334Z,99315.50
2023-04-03T21:28:51.963Z,99319.00
2023-04-03T21:31:21.349Z,99301.50
2023-04-03T21:33:48.325Z,99313.78
2023-04-03T21:36:15.531Z,99308.53
2023-04-03T21:38:44.209Z,99305.03
2023-04-03T21:41:11.559Z,99301.50
2023-04-03T21:43:38.538Z,99292.75
2023-04-03T21:46:05.802Z,99303.28
2023-04-03T21:48:32.880Z,99268.22
2023-04-03T21:51:03.877Z,99302.41
2023-04-03T21:53:31.407Z,99310.28
2023-04-03T21:56:00.362Z,99289.25
2023-04-03T21:58:33.875Z,99278.75
2023-04-03T22:01:11.201Z,99288.34
2023-04-03T22:03:39.031Z,99263.88
2023-04-03T22:06:06.227Z,99266.50
2023-04-03T22:08:33.845Z,99293.66
2023-04-03T22:11:05.198Z,99279.66
2023-04-03T22:13:32.607Z,99266.50
2023-04-03T22:16:00.242Z,99266.50
2023-04-03T22:18:27.744Z,99282.28
2023-04-03T22:20:55.798Z,99261.22
2023-04-03T22:23:23.104Z,99280.50
2023-04-03T22:26:06.578Z,99279.63
2023-04-03T22:28:35.778Z,99256.88
2023-04-03T22:31:13.611Z,99266.50
2023-04-03T22:33:42.273Z,99278.75
2023-04-03T22:36:11.327Z,99270.88
2023-04-03T22:38:39.328Z,99280.53
2023-04-03T22:41:08.259Z,99240.22
2023-04-03T22:43:38.122Z,99275.25
2023-04-03T22:46:08.701Z,99272.63
2023-04-03T22:48:37.319Z,99274.41
2023-04-03T22:51:07.617Z,99287.50
2023-04-03T22:53:34.913Z,99281.38
2023-04-03T22:56:04.844Z,99279.63
2023-04-03T22:58:31.909Z,99279.66
2023-04-03T23:01:12.776Z,99266.50
2023-04-03T23:03:41.706Z,99285.75
2023-04-03T23:06:10.213Z,99284.00
2023-04-03T23:08:42.045Z,99276.09
2023-04-03T23:11:09.779Z,99284.88
2023-04-03T23:13:37.222Z,99277.00
2023-04-03T23:16:05.087Z,99262.09
2023-04-03T23:18:39.770Z,99286.66
2023-04-03T23:21:08.581Z,99252.47
2023-04-03T23:23:35.566Z,99242.84
2023-04-03T23:26:02.870Z,99241.97
2023-04-03T23:28:30.483Z,99271.75
2023-04-03T23:31:02.307Z,99263.88
2023-04-03T23:33:31.001Z,99270.00
2023-04-03T23:35:59.229Z,99238.50
2023-04-03T23:38:26.456Z,99223.59
2023-04-03T23:40:53.442Z,99271.75
2023-04-03T23:43:20.701Z,99252.47
2023-04-03T23:45:47.904Z,99241.09
2023-04-03T23:48:15.044Z,99233.22
2023-04-03T23:50:43.292Z,99249.84
2023-04-03T23:53:13.007Z,99255.97
2023-04-03T23:55:40.104Z,99237.59
2023-04-03T23:58:07.172Z,99256.84
